createdAt,value
2023-03-27T01:33:36.382Z,1.61
2023-03-27T01:53:36.388Z,1.43
2023-03-27T02:13:36.324Z,1.26
2023-03-27T02:33:36.317Z,1.17
2023-03-27T02:53:36.326Z,1.24
2023-03-27T03:13:36.282Z,1.29
2023-03-27T03:33:36.253Z,0.5
2023-03-27T03:53:36.274Z,0.19
2023-03-27T04:13:36.190Z,0.29
2023-03-27T04:33:36.177Z,0.28
2023-03-27T04:53:36.238Z,0.09
2023-03-27T05:13:36.144Z,0.19
2023-03-27T05:53:36.100Z,0.9
2023-03-27T06:33:36.088Z,1.87
2023-03-27T06:53:38.163Z,2.8
2023-03-27T08:33:35.874Z,5.76
2023-03-27T09:13:35.818Z,5.92
2023-03-27T09:33:35.784Z,6.38
2023-03-27T09:53:35.782Z,6.04
2023-03-27T10:13:35.739Z,6.4
2023-03-27T10:53:35.738Z,6.27
2023-03-27T11:13:35.663Z,7.14
2023-03-27T11:33:35.609Z,6.24
2023-03-27T11:53:35.608Z,5.59
2023-03-27T12:13:41.498Z,7.52
2023-03-27T12:33:35.515Z,6.87
2023-03-27T12:53:35.485Z,5.91
2023-03-27T15:13:35.280Z,7.5
2023-03-27T15:33:35.256Z,7.71
2023-03-27T15:53:35.217Z,7.5
2023-03-27T16:13:35.177Z,7.49
2023-03-27T16:33:35.141Z,6.86
2023-03-27T17:13:35.074Z,5.78
2023-03-27T17:33:35.066Z,5.24
2023-03-27T17:53:35.027Z,4.86
2023-03-27T18:53:34.962Z,3.78
2023-03-27T20:13:39.650Z,2.74
2023-03-27T20:33:34.785Z,2.57
2023-03-27T20:53:34.765Z,2.34
2023-03-27T21:13:34.766Z,2.27
2023-03-27T21:33:34.732Z,2.28
2023-03-27T22:53:34.623Z,1.17
2023-03-27T23:33:34.588Z,0.96
2023-03-27T23:53:34.544Z,0.98
